Time;durP1;ratioP1;P1;durP2;ratioP2;P2;SDS_P1;SDS_P2;PMS_P1;PMS_P2;Temp;Humidity;BMP_temperature;BMP_pressure;BME280_temperature;BME280_humidity;BME280_pressure;Samples;Min_cycle;Max_cycle;Signal;HPM_P1;HPM_P2
2022/07/26 00:01:00;;;;;;;0.20;0.20;;;15.70;99.90;;;;;;5009661;28;20034;-59
2022/07/26 00:03:26;;;;;;;2.40;0.40;;;15.60;99.90;;;;;;5016844;28;20066;-60
2022/07/26 00:05:52;;;;;;;0.70;0.30;;;15.60;99.90;;;;;;5011576;28;20521;-60
2022/07/26 00:08:17;;;;;;;0.55;0.30;;;15.60;99.90;;;;;;5010949;28;20466;-60
2022/07/26 00:10:47;;;;;;;0.32;0.25;;;15.50;99.90;;;;;;5016474;28;20539;-60
2022/07/26 00:13:15;;;;;;;0.88;0.40;;;15.60;99.90;;;;;;5009921;28;20048;-60
2022/07/26 00:15:41;;;;;;;2.08;0.43;;;15.60;99.90;;;;;;5007579;28;20433;-61
2022/07/26 00:18:07;;;;;;;1.38;0.50;;;15.50;99.90;;;;;;5010694;28;20076;-59
2022/07/26 00:20:32;;;;;;;0.93;0.28;;;15.50;99.90;;;;;;5014049;28;20038;-59
2022/07/26 00:22:58;;;;;;;1.15;0.25;;;15.50;99.90;;;;;;5008335;28;20056;-59
2022/07/26 00:25:24;;;;;;;1.88;0.30;;;15.50;99.90;;;;;;5008337;28;20160;-60
2022/07/26 00:27:50;;;;;;;1.95;0.50;;;15.50;99.90;;;;;;5016650;28;20112;-60
2022/07/26 00:30:15;;;;;;;1.77;0.75;;;15.40;99.90;;;;;;5009857;28;20022;-61
2022/07/26 00:32:42;;;;;;;0.75;0.30;;;15.40;99.90;;;;;;5007211;28;20022;-59
2022/07/26 00:35:08;;;;;;;1.20;0.35;;;15.30;99.90;;;;;;5011580;28;20587;-59
2022/07/26 00:37:33;;;;;;;0.70;0.30;;;15.30;99.90;;;;;;5013189;28;20157;-59
2022/07/26 00:39:59;;;;;;;1.30;0.80;;;15.30;99.90;;;;;;5008926;28;20026;-58
2022/07/26 00:42:25;;;;;;;1.05;0.40;;;15.20;99.90;;;;;;5017903;28;20026;-59
2022/07/26 00:44:50;;;;;;;0.80;0.20;;;15.20;99.90;;;;;;5009374;28;20128;-59
2022/07/26 00:47:16;;;;;;;2.22;0.45;;;15.10;99.90;;;;;;5011500;28;20115;-60
2022/07/26 00:49:42;;;;;;;1.02;0.30;;;15.00;99.90;;;;;;5010240;28;20025;-61
2022/07/26 00:52:09;;;;;;;2.30;1.02;;;15.00;99.90;;;;;;5009656;28;20030;-59
2022/07/26 00:54:36;;;;;;;1.33;0.40;;;15.00;99.90;;;;;;5009482;28;20042;-60
2022/07/26 00:57:02;;;;;;;2.08;0.40;;;14.80;99.90;;;;;;5009507;28;20382;-60
2022/07/26 00:59:28;;;;;;;1.08;0.32;;;14.70;99.90;;;;;;5016609;28;20026;-60
2022/07/26 01:01:54;;;;;;;1.08;0.40;;;14.70;99.90;;;;;;5014604;28;20049;-60
2022/07/26 01:04:20;;;;;;;2.47;0.40;;;14.60;99.90;;;;;;5017846;28;20449;-60
2022/07/26 01:06:47;;;;;;;1.55;0.30;;;14.60;99.90;;;;;;5009315;28;20508;-59
2022/07/26 01:09:13;;;;;;;1.38;0.85;;;14.60;99.90;;;;;;5014733;28;20077;-60
2022/07/26 01:11:39;;;;;;;0.20;0.20;;;14.60;99.90;;;;;;5011366;28;20065;-59
2022/07/26 01:14:04;;;;;;;4.45;0.55;;;14.60;99.90;;;;;;5016704;28;20048;-60
2022/07/26 01:16:30;;;;;;;2.30;0.55;;;14.50;99.90;;;;;;5021603;28;20082;-59
2022/07/26 01:18:57;;;;;;;2.63;0.40;;;14.50;99.90;;;;;;5020728;28;20030;-60
2022/07/26 01:21:30;;;;;;;1.20;0.30;;;14.50;99.90;;;;;;5021685;28;20036;-61
2022/07/26 01:23:56;;;;;;;0.40;0.40;;;14.50;99.90;;;;;;5011251;28;20030;-60
2022/07/26 01:26:22;;;;;;;0.65;0.40;;;14.40;99.90;;;;;;5016718;28;20173;-60
2022/07/26 01:28:50;;;;;;;1.73;0.38;;;14.40;99.90;;;;;;5011880;28;20030;-60
2022/07/26 01:31:17;;;;;;;1.42;0.30;;;14.30;99.90;;;;;;5014458;28;20022;-60
2022/07/26 01:33:42;;;;;;;1.75;0.40;;;14.30;99.90;;;;;;5018523;28;20036;-60
2022/07/26 01:36:08;;;;;;;0.75;0.38;;;14.30;99.90;;;;;;5013855;28;20394;-60
2022/07/26 01:38:34;;;;;;;1.05;0.38;;;14.30;99.90;;;;;;5018265;28;20025;-60
2022/07/26 01:41:00;;;;;;;3.35;0.85;;;14.20;99.90;;;;;;5017133;28;20516;-59
2022/07/26 01:43:26;;;;;;;2.15;0.40;;;14.20;99.90;;;;;;5014067;28;20038;-59
2022/07/26 01:45:51;;;;;;;0.90;0.40;;;14.20;99.90;;;;;;5012589;28;20117;-59
2022/07/26 01:48:17;;;;;;;1.50;0.55;;;14.20;99.90;;;;;;5017270;28;20029;-59
2022/07/26 01:50:43;;;;;;;1.30;0.40;;;14.20;99.90;;;;;;5015125;28;20091;-58
2022/07/26 01:53:09;;;;;;;2.50;0.50;;;14.30;99.90;;;;;;5016305;28;20482;-59
2022/07/26 01:55:35;;;;;;;3.40;0.50;;;14.30;99.90;;;;;;5009474;28;20068;-59
2022/07/26 01:58:02;;;;;;;2.20;0.60;;;14.50;99.90;;;;;;5018065;28;20058;-58
2022/07/26 02:00:27;;;;;;;0.47;0.28;;;14.60;99.90;;;;;;5019909;28;20021;-58
2022/07/26 02:02:53;;;;;;;1.73;0.30;;;14.70;99.90;;;;;;5016855;28;20067;-58
2022/07/26 02:05:19;;;;;;;0.45;0.30;;;14.80;99.90;;;;;;5011794;28;20058;-60
2022/07/26 02:07:44;;;;;;;2.20;0.93;;;14.90;99.90;;;;;;5014620;28;20476;-60
2022/07/26 02:10:11;;;;;;;2.28;0.68;;;14.90;99.90;;;;;;5015536;28;20053;-60
2022/07/26 02:12:37;;;;;;;3.17;0.40;;;15.00;99.90;;;;;;5016043;28;20121;-59
2022/07/26 02:15:05;;;;;;;1.50;0.30;;;15.10;99.90;;;;;;5011278;28;20324;-60
2022/07/26 02:17:31;;;;;;;1.35;0.45;;;15.20;99.90;;;;;;5020117;28;20474;-60
2022/07/26 02:19:56;;;;;;;0.63;0.30;;;15.30;99.90;;;;;;5015274;28;20026;-60
2022/07/26 02:22:22;;;;;;;1.05;0.20;;;15.40;99.90;;;;;;5011658;28;20083;-60
2022/07/26 02:24:49;;;;;;;2.03;0.30;;;15.40;99.90;;;;;;5016222;28;20034;-59
2022/07/26 02:27:14;;;;;;;1.13;0.40;;;15.50;99.90;;;;;;5008238;28;20037;-58
2022/07/26 02:29:40;;;;;;;1.92;1.15;;;15.50;99.90;;;;;;5008924;28;20034;-59
2022/07/26 02:32:07;;;;;;;2.65;0.63;;;15.50;99.90;;;;;;5010367;28;20026;-59
2022/07/26 02:34:33;;;;;;;1.38;0.43;;;15.60;99.90;;;;;;5010920;28;20056;-59
2022/07/26 02:36:59;;;;;;;2.55;0.50;;;15.60;99.90;;;;;;5017175;28;20493;-59
2022/07/26 02:39:26;;;;;;;0.52;0.20;;;15.70;99.90;;;;;;5005214;28;20038;-59
2022/07/26 02:42:01;;;;;;;4.72;0.47;;;15.70;99.90;;;;;;5011434;28;20034;-59
2022/07/26 02:44:29;;;;;;;1.55;0.40;;;15.80;99.90;;;;;;5013694;28;20054;-59
2022/07/26 02:46:55;;;;;;;3.42;0.70;;;15.90;99.90;;;;;;5008223;28;20114;-59
2022/07/26 02:49:21;;;;;;;2.22;0.50;;;15.90;99.90;;;;;;5003796;28;20112;-59
2022/07/26 02:51:47;;;;;;;0.60;0.40;;;16.00;99.90;;;;;;5013105;28;20027;-59
2022/07/26 02:54:13;;;;;;;1.65;0.50;;;16.00;99.90;;;;;;5008436;28;20046;-59
2022/07/26 02:56:39;;;;;;;1.05;0.40;;;16.00;99.90;;;;;;5003351;28;20045;-59
2022/07/26 02:59:06;;;;;;;2.08;0.40;;;16.00;99.90;;;;;;5014212;28;20033;-61
2022/07/26 03:01:34;;;;;;;2.35;0.43;;;16.00;99.90;;;;;;5010735;28;20030;-60
2022/07/26 03:04:00;;;;;;;1.10;0.30;;;16.00;99.90;;;;;;5008096;28;20037;-61
2022/07/26 03:06:25;;;;;;;0.60;0.40;;;16.00;99.90;;;;;;5007207;28;20033;-59
2022/07/26 03:08:51;;;;;;;4.72;0.50;;;16.00;99.90;;;;;;5013041;28;20064;-58
2022/07/26 03:11:17;;;;;;;2.17;0.52;;;16.00;99.90;;;;;;5006000;28;20126;-59
2022/07/26 03:13:42;;;;;;;1.50;0.32;;;16.00;99.90;;;;;;5009014;28;20461;-59
2022/07/26 03:16:08;;;;;;;3.58;0.77;;;16.00;99.90;;;;;;5017618;28;20387;-59
2022/07/26 03:18:34;;;;;;;1.85;0.65;;;16.10;99.90;;;;;;5018656;28;20037;-59
2022/07/26 03:20:59;;;;;;;0.80;0.30;;;16.10;99.90;;;;;;5002125;28;20099;-59
2022/07/26 03:23:25;;;;;;;1.98;0.40;;;16.10;99.90;;;;;;4999945;28;20042;-59
2022/07/26 03:25:51;;;;;;;3.00;0.50;;;16.10;99.90;;;;;;5003020;28;20026;-59
2022/07/26 03:28:17;;;;;;;3.20;0.50;;;16.10;99.90;;;;;;5004203;28;20113;-60
2022/07/26 03:30:42;;;;;;;1.23;0.30;;;16.00;99.90;;;;;;5013895;28;20458;-59
2022/07/26 03:33:08;;;;;;;1.85;0.30;;;16.00;99.90;;;;;;5006312;28;20030;-60
2022/07/26 03:35:34;;;;;;;1.92;0.30;;;16.00;99.90;;;;;;5006298;28;20497;-59
2022/07/26 03:37:59;;;;;;;1.92;0.93;;;16.00;99.90;;;;;;5008720;28;20025;-59
2022/07/26 03:40:25;;;;;;;2.40;0.43;;;16.00;99.90;;;;;;5010950;28;20026;-59
2022/07/26 03:42:51;;;;;;;2.20;0.40;;;15.90;99.90;;;;;;5006954;22;20058;-59
2022/07/26 03:45:17;;;;;;;1.48;0.47;;;15.90;99.90;;;;;;4987977;28;20025;-59
2022/07/26 03:47:44;;;;;;;3.40;1.33;;;15.90;99.90;;;;;;4989114;28;20117;-60
2022/07/26 03:50:10;;;;;;;1.10;0.38;;;15.90;99.90;;;;;;4983486;28;20027;-61
2022/07/26 03:52:36;;;;;;;0.85;0.40;;;15.90;99.90;;;;;;4995921;28;20030;-61
2022/07/26 03:56:27;;;;;;;4.00;1.48;;;15.90;99.90;;;;;;4988596;28;20053;-59
2022/07/26 03:57:50;;;;;;;0.28;0.20;;;15.90;99.90;;;;;;4989217;28;20424;-58
2022/07/26 04:00:16;;;;;;;2.30;0.30;;;15.80;99.90;;;;;;4991680;28;20516;-59
2022/07/26 04:02:42;;;;;;;3.47;0.63;;;15.90;99.90;;;;;;4997386;28;20482;-59
2022/07/26 04:05:08;;;;;;;1.33;0.50;;;15.80;99.90;;;;;;4982877;28;20035;-59
2022/07/26 04:07:41;;;;;;;2.05;0.60;;;15.80;99.90;;;;;;4996597;28;20034;-60
2022/07/26 04:10:07;;;;;;;3.15;0.60;;;15.80;99.90;;;;;;4991511;28;20030;-60
2022/07/26 04:12:33;;;;;;;3.00;0.50;;;15.80;99.90;;;;;;4988159;28;20026;-60
2022/07/26 04:14:58;;;;;;;1.50;0.45;;;15.80;99.90;;;;;;4988219;28;20051;-60
2022/07/26 04:17:24;;;;;;;1.00;0.55;;;15.90;99.90;;;;;;4996625;28;20046;-60
2022/07/26 04:19:50;;;;;;;1.83;0.63;;;15.90;99.90;;;;;;4986539;28;20471;-60
2022/07/26 04:22:15;;;;;;;2.67;0.65;;;15.90;99.90;;;;;;4988487;28;20048;-60
2022/07/26 04:24:41;;;;;;;2.63;0.40;;;15.80;99.90;;;;;;4990291;28;20034;-59
2022/07/26 04:27:07;;;;;;;2.97;0.70;;;15.90;99.90;;;;;;4980099;28;20026;-60
2022/07/26 04:29:32;;;;;;;1.88;0.30;;;15.90;99.90;;;;;;4994513;28;20030;-59
2022/07/26 04:31:58;;;;;;;3.35;0.77;;;15.90;99.90;;;;;;4983588;28;20953;-59
2022/07/26 04:34:24;;;;;;;1.60;0.55;;;15.90;99.90;;;;;;4992201;28;20040;-59
2022/07/26 04:36:49;;;;;;;3.38;0.73;;;15.90;99.90;;;;;;4986885;28;20037;-60
2022/07/26 04:39:15;;;;;;;3.30;0.60;;;15.90;99.90;;;;;;5001153;28;20026;-60
2022/07/26 04:41:41;;;;;;;0.60;0.30;;;15.90;99.90;;;;;;4993450;28;20023;-60
2022/07/26 04:44:06;;;;;;;3.33;0.73;;;15.90;99.90;;;;;;5000885;28;20034;-59
2022/07/26 04:46:32;;;;;;;4.00;0.80;;;15.90;99.90;;;;;;4996535;28;20026;-59
2022/07/26 04:48:57;;;;;;;1.88;0.57;;;15.90;99.90;;;;;;4997636;28;20474;-59
2022/07/26 04:51:24;;;;;;;3.25;0.50;;;16.00;99.90;;;;;;5001658;28;20471;-59
2022/07/26 04:53:50;;;;;;;3.58;0.50;;;16.10;99.90;;;;;;5001997;28;20030;-59
2022/07/26 04:56:15;;;;;;;1.63;0.40;;;16.10;99.90;;;;;;4999507;28;20038;-60
2022/07/26 04:58:41;;;;;;;6.20;0.70;;;16.10;99.90;;;;;;4996149;28;20028;-60
2022/07/26 05:01:07;;;;;;;5.05;0.82;;;16.20;99.90;;;;;;4998961;28;20097;-60
2022/07/26 05:03:33;;;;;;;1.45;0.70;;;16.20;99.90;;;;;;4996407;28;20054;-60
2022/07/26 05:05:59;;;;;;;7.68;0.77;;;16.20;99.90;;;;;;4987590;28;20093;-60
2022/07/26 05:08:25;;;;;;;4.78;0.65;;;16.20;99.90;;;;;;4988885;28;20457;-59
2022/07/26 05:10:50;;;;;;;3.92;0.88;;;16.30;99.90;;;;;;4995770;28;20386;-60
2022/07/26 05:13:16;;;;;;;3.92;0.52;;;16.30;99.90;;;;;;4990608;28;20467;-60
2022/07/26 05:15:42;;;;;;;5.45;0.70;;;16.30;99.90;;;;;;4995375;28;20053;-60
2022/07/26 05:18:08;;;;;;;3.55;0.80;;;16.30;99.90;;;;;;4997680;28;20109;-60
2022/07/26 05:20:35;;;;;;;1.55;0.60;;;16.40;99.90;;;;;;4994245;28;20026;-60
2022/07/26 05:23:02;;;;;;;2.25;0.70;;;16.40;99.90;;;;;;4985956;28;20081;-59
2022/07/26 05:25:28;;;;;;;1.70;0.73;;;16.50;99.90;;;;;;5002630;28;20037;-60
2022/07/26 05:27:53;;;;;;;2.20;0.50;;;16.50;99.90;;;;;;4995966;28;20034;-61
2022/07/26 05:30:19;;;;;;;1.35;0.50;;;16.60;99.90;;;;;;4983386;28;20494;-60
2022/07/26 05:32:45;;;;;;;2.17;0.70;;;16.60;99.90;;;;;;4996807;28;20113;-60
2022/07/26 05:35:11;;;;;;;2.92;0.47;;;16.60;99.90;;;;;;4989532;28;20066;-60
2022/07/26 05:37:37;;;;;;;2.35;0.68;;;16.70;99.90;;;;;;4997039;28;20023;-59
2022/07/26 05:40:04;;;;;;;4.63;0.90;;;16.70;99.90;;;;;;4986716;28;20497;-59
2022/07/26 05:42:30;;;;;;;3.72;0.93;;;16.80;99.90;;;;;;4994057;28;20398;-59
2022/07/26 05:44:55;;;;;;;1.27;0.50;;;16.80;99.90;;;;;;4992157;28;20030;-59
2022/07/26 05:47:21;;;;;;;1.08;0.50;;;16.90;99.90;;;;;;4997089;28;20386;-59
2022/07/26 05:49:47;;;;;;;2.35;0.88;;;16.90;99.90;;;;;;4992966;28;20031;-59
2022/07/26 05:52:13;;;;;;;3.53;0.60;;;17.00;99.90;;;;;;4987389;28;20041;-59
2022/07/26 05:54:39;;;;;;;2.70;0.50;;;17.10;99.90;;;;;;4996325;28;20482;-59
2022/07/26 05:57:04;;;;;;;4.13;1.20;;;17.00;99.90;;;;;;4988921;28;20030;-60
2022/07/26 05:59:30;;;;;;;5.78;0.70;;;17.10;99.90;;;;;;4987481;28;20045;-60
2022/07/26 06:01:56;;;;;;;7.15;1.27;;;17.10;99.90;;;;;;4989519;28;20026;-59
2022/07/26 06:04:23;;;;;;;4.10;0.90;;;17.20;99.90;;;;;;4988209;28;20093;-59
2022/07/26 06:06:49;;;;;;;0.82;0.57;;;17.20;99.90;;;;;;4993162;28;20161;-60
2022/07/26 06:09:15;;;;;;;6.43;1.02;;;17.40;99.90;;;;;;4990393;28;20057;-60
2022/07/26 06:11:41;;;;;;;3.60;0.60;;;17.40;99.90;;;;;;4988158;28;20018;-58
2022/07/26 06:14:06;;;;;;;4.93;0.80;;;17.50;99.90;;;;;;4991997;28;20070;-59
2022/07/26 06:16:32;;;;;;;3.20;1.00;;;17.60;99.90;;;;;;4989526;28;20121;-59
2022/07/26 06:18:58;;;;;;;3.90;0.95;;;17.60;99.90;;;;;;4989198;28;20478;-59
2022/07/26 06:21:23;;;;;;;5.10;0.93;;;17.60;99.90;;;;;;4993057;28;20443;-59
2022/07/26 06:23:50;;;;;;;1.77;0.80;;;17.70;99.90;;;;;;4999618;28;20034;-59
2022/07/26 06:26:16;;;;;;;3.65;1.10;;;17.60;99.90;;;;;;4991217;28;20479;-60
2022/07/26 06:28:42;;;;;;;5.38;1.10;;;17.60;99.90;;;;;;4987905;28;20027;-60
2022/07/26 06:31:09;;;;;;;4.90;1.13;;;17.60;99.90;;;;;;4992043;28;20391;-60
2022/07/26 06:33:35;;;;;;;6.93;1.17;;;17.70;99.90;;;;;;4994575;28;20376;-60
2022/07/26 06:36:00;;;;;;;4.85;1.17;;;17.80;99.90;;;;;;4996233;28;20073;-60
2022/07/26 06:38:26;;;;;;;5.28;0.90;;;17.90;99.90;;;;;;5006133;28;20453;-59
2022/07/26 06:40:52;;;;;;;6.15;2.00;;;18.00;99.90;;;;;;4989965;28;20026;-59
2022/07/26 06:43:19;;;;;;;5.30;0.90;;;18.00;99.90;;;;;;4993115;28;20038;-59
2022/07/26 06:45:45;;;;;;;3.03;1.23;;;18.10;99.90;;;;;;4996524;28;20026;-60
2022/07/26 06:48:11;;;;;;;3.10;1.00;;;18.20;99.90;;;;;;4991785;28;20060;-60
2022/07/26 06:50:37;;;;;;;3.95;1.08;;;18.20;99.90;;;;;;4998609;28;20018;-59
2022/07/26 06:53:03;;;;;;;4.40;1.27;;;18.30;99.90;;;;;;4995248;28;20026;-60
2022/07/26 06:55:28;;;;;;;3.83;0.80;;;18.30;99.90;;;;;;4999634;28;20041;-60
2022/07/26 06:57:54;;;;;;;6.28;1.10;;;18.40;99.90;;;;;;4980952;28;20463;-59
2022/07/26 07:00:19;;;;;;;5.80;1.02;;;18.30;99.90;;;;;;4995748;28;20038;-59
2022/07/26 07:02:45;;;;;;;3.75;1.08;;;18.20;99.90;;;;;;4991314;28;20033;-60
2022/07/26 07:05:11;;;;;;;4.40;1.52;;;18.40;99.90;;;;;;4996519;28;20371;-59
2022/07/26 07:07:37;;;;;;;4.40;1.20;;;18.40;99.90;;;;;;4998384;28;20030;-59
2022/07/26 07:10:04;;;;;;;4.47;1.27;;;18.50;99.90;;;;;;4988128;28;20037;-58
2022/07/26 07:12:30;;;;;;;6.13;1.10;;;18.40;99.90;;;;;;4981020;28;20026;-60
2022/07/26 07:14:56;;;;;;;3.92;1.10;;;18.30;99.90;;;;;;4988572;28;20034;-60
2022/07/26 07:17:22;;;;;;;5.97;1.20;;;18.30;99.90;;;;;;4989415;28;20117;-60
2022/07/26 07:19:48;;;;;;;5.32;1.52;;;18.20;99.90;;;;;;4990000;28;20482;-60
2022/07/26 07:22:14;;;;;;;6.28;1.55;;;18.20;99.90;;;;;;4991069;28;20101;-61
2022/07/26 07:24:41;;;;;;;3.83;1.52;;;18.30;99.90;;;;;;4978558;28;20042;-59
2022/07/26 07:27:07;;;;;;;4.25;1.63;;;18.30;99.90;;;;;;4991673;28;20030;-60
2022/07/26 07:29:33;;;;;;;6.38;1.30;;;18.40;99.90;;;;;;4990969;28;20040;-59
2022/07/26 07:31:59;;;;;;;5.38;1.40;;;18.50;99.90;;;;;;4993844;28;20527;-60
2022/07/26 07:34:24;;;;;;;4.72;1.60;;;18.50;99.90;;;;;;4987545;28;20089;-58
2022/07/26 07:36:51;;;;;;;5.05;2.38;;;18.40;99.90;;;;;;4989825;28;20057;-58
2022/07/26 07:39:18;;;;;;;2.58;1.33;;;18.40;99.90;;;;;;4992841;28;20117;-59
2022/07/26 07:41:44;;;;;;;4.18;1.25;;;18.50;99.90;;;;;;4994044;28;20030;-58
2022/07/26 07:44:10;;;;;;;2.70;1.20;;;18.50;99.90;;;;;;4993430;28;20029;-59
2022/07/26 07:46:36;;;;;;;3.90;1.60;;;18.40;99.90;;;;;;4989340;28;20144;-61
2022/07/26 07:49:01;;;;;;;3.53;1.50;;;18.60;99.90;;;;;;4983459;28;20038;-59
2022/07/26 07:51:27;;;;;;;5.63;2.10;;;18.60;99.90;;;;;;4989320;28;20390;-60
2022/07/26 07:53:53;;;;;;;4.40;1.40;;;18.50;99.90;;;;;;4987180;28;20041;-60
2022/07/26 07:56:20;;;;;;;3.10;1.27;;;18.40;99.90;;;;;;4996239;28;20085;-60
2022/07/26 07:58:45;;;;;;;6.60;1.60;;;18.30;99.90;;;;;;4992489;28;20027;-60
2022/07/26 08:01:11;;;;;;;10.02;1.70;;;18.40;99.90;;;;;;4997663;28;20113;-60
2022/07/26 08:03:37;;;;;;;4.80;1.27;;;18.50;99.90;;;;;;4996901;28;20018;-62
2022/07/26 08:06:05;;;;;;;4.40;1.30;;;18.60;99.90;;;;;;4991696;28;20038;-59
2022/07/26 08:08:32;;;;;;;3.35;1.58;;;18.70;99.90;;;;;;4986745;28;20023;-59
2022/07/26 08:10:57;;;;;;;5.22;2.00;;;18.80;99.90;;;;;;4985311;28;20392;-59
2022/07/26 08:13:23;;;;;;;7.43;1.75;;;18.90;99.90;;;;;;4986456;28;20057;-59
2022/07/26 08:15:53;;;;;;;5.28;1.17;;;18.90;99.90;;;;;;4983694;28;20052;-59
2022/07/26 08:18:20;;;;;;;3.53;1.35;;;19.00;99.90;;;;;;4989982;28;20022;-59
2022/07/26 08:20:46;;;;;;;4.28;0.88;;;19.10;99.90;;;;;;4985898;28;20042;-60
2022/07/26 08:23:12;;;;;;;3.50;1.00;;;19.30;99.90;;;;;;4988542;28;20041;-60
2022/07/26 08:25:38;;;;;;;5.38;1.38;;;19.50;99.90;;;;;;4983564;28;20026;-60
2022/07/26 08:28:03;;;;;;;6.07;1.23;;;19.60;99.90;;;;;;4984486;28;20495;-59
2022/07/26 08:30:30;;;;;;;3.88;1.13;;;19.70;99.90;;;;;;4989058;28;20122;-59
2022/07/26 08:32:56;;;;;;;2.72;1.20;;;19.70;99.90;;;;;;4988749;28;20046;-59
2022/07/26 08:35:21;;;;;;;4.38;1.15;;;19.80;99.90;;;;;;4990045;28;20046;-59
2022/07/26 08:37:47;;;;;;;2.95;1.33;;;20.00;99.90;;;;;;4989119;28;20048;-60
2022/07/26 08:40:13;;;;;;;4.45;1.15;;;20.00;99.90;;;;;;4989645;28;20034;-59
2022/07/26 08:42:39;;;;;;;4.15;1.42;;;20.20;99.90;;;;;;4988559;28;20047;-59
2022/07/26 08:45:05;;;;;;;5.80;1.23;;;20.50;99.90;;;;;;4984966;28;20041;-59
2022/07/26 08:47:32;;;;;;;3.92;1.38;;;20.50;99.90;;;;;;4988262;28;20410;-60
2022/07/26 08:49:58;;;;;;;2.92;1.10;;;20.60;99.90;;;;;;4987910;28;20471;-59
2022/07/26 08:52:23;;;;;;;5.63;1.83;;;20.60;99.90;;;;;;4989397;28;20474;-58
2022/07/26 08:54:51;;;;;;;6.30;1.30;;;20.80;99.90;;;;;;4992677;28;20057;-59
2022/07/26 08:57:17;;;;;;;4.25;1.17;;;20.90;99.90;;;;;;4990581;28;20026;-58
2022/07/26 08:59:43;;;;;;;6.13;1.70;;;21.10;99.90;;;;;;4991345;28;20023;-58
2022/07/26 09:02:12;;;;;;;6.15;0.93;;;21.30;99.90;;;;;;4985502;28;20027;-58
2022/07/26 09:04:45;;;;;;;2.55;1.13;;;21.20;99.90;;;;;;4992175;28;20048;-60
2022/07/26 09:07:11;;;;;;;4.85;1.17;;;20.90;99.90;;;;;;4987830;28;20046;-59
2022/07/26 09:09:57;;;;;;;5.40;1.65;;;20.90;99.90;;;;;;4991785;28;20030;-59
2022/07/26 09:12:24;;;;;;;2.38;0.90;;;20.80;99.90;;;;;;4989231;28;20425;-59
2022/07/26 09:14:51;;;;;;;3.50;1.35;;;20.60;99.90;;;;;;4983706;28;20034;-59
2022/07/26 09:17:19;;;;;;;2.75;0.80;;;20.40;99.90;;;;;;4983736;28;20635;-59
2022/07/26 09:20:00;;;;;;;2.80;0.63;;;20.30;99.90;;;;;;4991789;28;20030;-59
2022/07/26 09:22:26;;;;;;;4.13;1.15;;;20.20;99.90;;;;;;4993352;28;20073;-59
2022/07/26 09:24:52;;;;;;;4.70;1.45;;;20.00;99.90;;;;;;5004636;28;20485;-58
2022/07/26 09:27:18;;;;;;;2.60;0.80;;;20.00;99.90;;;;;;5000963;28;20113;-59
2022/07/26 09:29:53;;;;;;;10.07;6.32;;;19.90;99.90;;;;;;4990720;28;20437;-60
2022/07/26 09:32:21;;;;;;;2.85;1.02;;;19.90;99.90;;;;;;4990961;28;20026;-59
2022/07/26 09:34:55;;;;;;;3.75;1.23;;;20.00;99.90;;;;;;5000073;28;20443;-59
2022/07/26 09:37:38;;;;;;;5.55;1.42;;;20.00;99.90;;;;;;4995795;28;20474;-60
2022/07/26 09:40:09;;;;;;;5.32;0.90;;;20.20;99.90;;;;;;4986673;28;20474;-60
2022/07/26 09:42:36;;;;;;;2.22;0.98;;;20.30;99.90;;;;;;4996735;28;20085;-61
2022/07/26 09:45:14;;;;;;;2.22;1.02;;;20.40;99.90;;;;;;4991126;28;20069;-59
2022/07/26 09:47:40;;;;;;;3.20;1.10;;;20.50;99.90;;;;;;4996080;28;20030;-60
2022/07/26 09:50:16;;;;;;;3.80;0.85;;;20.60;99.90;;;;;;4992605;28;20031;-58
2022/07/26 09:53:00;;;;;;;4.60;1.33;;;20.70;99.90;;;;;;4989020;28;20721;-58
2022/07/26 09:55:27;;;;;;;4.85;1.50;;;20.80;99.90;;;;;;5000639;28;20100;-59
2022/07/26 09:57:53;;;;;;;3.97;0.98;;;20.90;99.90;;;;;;4996736;28;20026;-59
2022/07/26 10:00:19;;;;;;;6.10;1.55;;;21.00;99.90;;;;;;4994046;28;20045;-60
2022/07/26 10:02:45;;;;;;;0.98;0.50;;;21.10;99.90;;;;;;5002280;28;20025;-60
2022/07/26 10:05:10;;;;;;;4.05;0.90;;;21.30;99.90;;;;;;4993027;28;20479;-59
2022/07/26 10:07:37;;;;;;;1.50;0.88;;;21.50;99.90;;;;;;4991212;28;20081;-60
2022/07/26 10:10:10;;;;;;;3.72;0.90;;;21.70;99.90;;;;;;4990050;28;20022;-59
2022/07/26 10:12:36;;;;;;;2.05;0.85;;;22.10;99.90;;;;;;4991116;28;20033;-59
2022/07/26 10:15:03;;;;;;;5.70;1.13;;;22.20;99.90;;;;;;4997271;28;20038;-59
2022/07/26 10:17:28;;;;;;;3.58;1.30;;;22.00;99.90;;;;;;4992131;28;20022;-60
2022/07/26 10:20:03;;;;;;;4.05;1.38;;;22.10;99.90;;;;;;5002193;28;20045;-60
2022/07/26 10:22:30;;;;;;;4.10;1.00;;;22.00;99.90;;;;;;4992128;28;20022;-59
2022/07/26 10:25:16;;;;;;;2.60;1.00;;;21.90;99.90;;;;;;4999240;28;20033;-59
2022/07/26 10:27:47;;;;;;;1.50;0.60;;;21.80;99.90;;;;;;4996476;28;20467;-59
2022/07/26 10:30:18;;;;;;;4.07;0.98;;;21.60;99.90;;;;;;4990838;28;20022;-59
2022/07/26 10:32:50;;;;;;;7.70;1.58;;;21.60;99.90;;;;;;4998311;28;20102;-59
2022/07/26 10:35:43;;;;;;;;;;;21.70;99.90;;;;;;4992333;28;20035;-60
2022/07/26 10:38:21;;;;;;;4.07;0.68;;;21.80;99.90;;;;;;4983564;28;19910;-60
2022/07/26 10:40:58;;;;;;;2.65;1.33;;;21.90;99.90;;;;;;4989209;28;20053;-59
2022/07/26 10:43:24;;;;;;;2.30;0.60;;;21.90;99.90;;;;;;4987904;28;20055;-60
2022/07/26 10:46:19;;;;;;;2.53;0.90;;;22.00;99.90;;;;;;4997169;28;20125;-60
2022/07/26 10:49:05;;;;;;;3.38;1.42;;;22.00;99.90;;;;;;4983447;28;20053;-61
2022/07/26 10:51:36;;;;;;;3.13;0.80;;;22.00;99.90;;;;;;4997630;28;20074;-61
2022/07/26 10:54:04;;;;;;;3.30;0.68;;;22.00;99.90;;;;;;4999997;28;20099;-60
2022/07/26 10:56:30;;;;;;;2.92;0.90;;;21.90;99.90;;;;;;4982559;28;20069;-61
2022/07/26 10:58:56;;;;;;;4.75;1.20;;;22.10;99.90;;;;;;4996403;28;20457;-60
2022/07/26 11:01:32;;;;;;;2.47;0.90;;;22.20;99.90;;;;;;4990336;28;20141;-60
2022/07/26 11:03:57;;;;;;;3.58;1.27;;;22.20;99.90;;;;;;4987274;28;20033;-61
2022/07/26 11:06:27;;;;;;;4.82;1.08;;;22.30;99.90;;;;;;4989828;28;20105;-60
2022/07/26 11:08:52;;;;;;;2.67;0.80;;;22.30;99.90;;;;;;4988843;28;20045;-60
2022/07/26 11:11:32;;;;;;;4.10;0.98;;;22.30;99.90;;;;;;5000185;28;20033;-60
2022/07/26 11:14:12;;;;;;;2.20;0.90;;;22.60;99.90;;;;;;4987989;28;20514;-58
2022/07/26 11:16:42;;;;;;;3.15;0.68;;;22.70;99.90;;;;;;4985807;28;20035;-59
2022/07/26 11:19:16;;;;;;;2.40;0.80;;;22.80;99.90;;;;;;4984700;28;20042;-59
2022/07/26 11:21:43;;;;;;;1.77;0.93;;;22.80;99.90;;;;;;4995311;28;20053;-59
2022/07/26 11:24:09;;;;;;;1.05;0.50;;;23.00;99.90;;;;;;4989963;28;20058;-59
2022/07/26 11:26:43;;;;;;;3.45;1.00;;;23.30;99.90;;;;;;4993093;28;20101;-59
2022/07/26 11:29:08;;;;;;;3.17;0.90;;;23.50;99.90;;;;;;4991353;28;20026;-59
2022/07/26 11:31:34;;;;;;;4.78;1.83;;;23.60;99.90;;;;;;4999018;28;20533;-60
2022/07/26 11:34:00;;;;;;;4.57;1.00;;;23.90;99.90;;;;;;4989512;28;20687;-59
2022/07/26 11:36:42;;;;;;;3.60;0.80;;;24.00;99.90;;;;;;5007617;28;20121;-60
2022/07/26 11:39:12;;;;;;;2.28;0.60;;;23.80;99.90;;;;;;4990393;28;20027;-59
2022/07/26 11:41:39;;;;;;;4.78;0.60;;;23.70;99.70;;;;;;4991501;28;20995;-60
2022/07/26 11:44:06;;;;;;;1.40;0.40;;;23.70;99.60;;;;;;4994718;28;20069;-59
2022/07/26 11:46:46;;;;;;;2.67;0.60;;;23.70;99.60;;;;;;4997380;28;20536;-59
2022/07/26 11:49:20;;;;;;;4.07;1.10;;;23.40;99.60;;;;;;4984502;28;20038;-60
2022/07/26 11:51:59;;;;;;;3.25;0.55;;;23.20;99.90;;;;;;4986871;28;20018;-59
2022/07/26 11:54:49;;;;;;;2.97;0.60;;;22.80;99.90;;;;;;4995964;28;20034;-59
2022/07/26 11:57:15;;;;;;;4.65;1.00;;;22.50;99.90;;;;;;4986166;28;20045;-59
2022/07/26 11:59:43;;;;;;;2.63;0.80;;;22.30;99.90;;;;;;4981052;28;20356;-59
2022/07/26 12:02:09;;;;;;;4.70;0.98;;;22.00;99.90;;;;;;4986463;28;20033;-60
2022/07/26 12:04:38;;;;;;;4.90;1.10;;;21.70;99.90;;;;;;4987966;28;20026;-60
2022/07/26 12:07:16;;;;;;;3.35;1.08;;;21.70;99.90;;;;;;4989604;28;20018;-58
2022/07/26 12:09:50;;;;;;;4.60;1.00;;;21.60;99.90;;;;;;4987991;28;20037;-58
2022/07/26 12:12:28;;;;;;;3.65;1.10;;;21.50;99.90;;;;;;4987274;28;20027;-58
2022/07/26 12:14:59;;;;;;;5.05;1.30;;;21.10;99.90;;;;;;4981480;28;20049;-58
2022/07/26 12:17:26;;;;;;;5.05;1.25;;;21.00;99.90;;;;;;4993066;28;20096;-59
2022/07/26 12:19:52;;;;;;;4.55;1.30;;;20.90;99.90;;;;;;4995405;28;20053;-59
2022/07/26 12:22:19;;;;;;;3.50;1.10;;;20.80;99.90;;;;;;4987435;28;20065;-59
2022/07/26 12:24:51;;;;;;;4.80;1.40;;;20.80;99.90;;;;;;4981567;28;20474;-60
2022/07/26 12:27:27;;;;;;;7.32;1.42;;;20.70;99.90;;;;;;4997583;28;20038;-60
2022/07/26 12:29:55;;;;;;;3.17;1.02;;;20.80;99.90;;;;;;4993315;28;20363;-60
2022/07/26 12:32:34;;;;;;;3.58;1.20;;;20.80;99.90;;;;;;4989825;28;20503;-60
2022/07/26 12:35:11;;;;;;;2.97;1.35;;;20.90;99.90;;;;;;4979575;28;20057;-59
2022/07/26 12:37:46;;;;;;;3.03;0.90;;;21.00;99.90;;;;;;4991782;28;20117;-59
2022/07/26 12:40:14;;;;;;;5.45;0.88;;;21.00;99.90;;;;;;4982740;28;20034;-59
2022/07/26 12:42:50;;;;;;;3.03;1.20;;;20.90;99.90;;;;;;4995464;28;20046;-59
2022/07/26 12:45:20;;;;;;;3.47;1.40;;;21.00;99.90;;;;;;4990692;28;20433;-59
2022/07/26 12:47:48;;;;;;;3.33;1.40;;;20.90;99.90;;;;;;4993029;28;20026;-59
2022/07/26 12:50:16;;;;;;;7.32;3.10;;;20.90;99.90;;;;;;4992302;28;20031;-58